createdAt,value
2022-10-23T00:00:39.424Z,14.60
2022-10-23T00:03:06.470Z,14.60
2022-10-23T00:05:33.721Z,14.40
2022-10-23T00:08:00.880Z,14.50
2022-10-23T00:10:28.231Z,14.50
2022-10-23T00:12:54.912Z,14.50
2022-10-23T00:15:22.951Z,14.60
2022-10-23T00:17:49.808Z,14.60
2022-10-23T00:20:18.039Z,14.50
2022-10-23T00:22:44.824Z,14.40
2022-10-23T00:25:11.909Z,14.50
2022-10-23T00:27:38.763Z,14.40
2022-10-23T00:30:06.720Z,14.10
2022-10-23T00:32:33.428Z,14.40
2022-10-23T00:35:00.171Z,14.30
2022-10-23T00:37:26.929Z,14.30
2022-10-23T00:39:53.705Z,14.30
2022-10-23T00:42:21.649Z,14.40
2022-10-23T00:44:51.344Z,14.40
2022-10-23T00:47:18.332Z,14.30
2022-10-23T00:49:45.190Z,14.20
2022-10-23T00:52:13.196Z,14.20
2022-10-23T00:54:42.965Z,14.30
2022-10-23T00:57:14.661Z,14.20
2022-10-23T00:59:41.978Z,14.10
2022-10-23T01:02:09.255Z,14.10
2022-10-23T01:04:37.436Z,14.10
2022-10-23T01:07:34.545Z,14.10
2022-10-23T01:10:11.460Z,14.20
2022-10-23T01:12:56.660Z,14.20
2022-10-23T01:15:43.132Z,14.30
2022-10-23T01:18:45.630Z,14.20
2022-10-23T01:21:31.022Z,13.80
2022-10-23T01:24:31.185Z,13.90
2022-10-23T01:27:18.997Z,14.00
2022-10-23T01:30:08.796Z,14.10
2022-10-23T01:32:44.730Z,14.00
2022-10-23T01:35:34.624Z,14.20
2022-10-23T01:38:12.973Z,14.10
2022-10-23T01:40:46.487Z,14.00
2022-10-23T01:43:17.996Z,13.90
2022-10-23T01:45:57.552Z,14.10
2022-10-23T01:48:28.183Z,14.20
2022-10-23T01:50:59.801Z,14.30
2022-10-23T01:53:30.704Z,14.30
2022-10-23T01:55:59.071Z,14.20
2022-10-23T01:58:28.036Z,14.30
2022-10-23T02:00:58.485Z,14.60
2022-10-23T02:03:26.018Z,14.80
2022-10-23T02:05:52.768Z,14.90
2022-10-23T02:08:19.504Z,14.80
2022-10-23T02:10:58.297Z,14.90
2022-10-23T02:13:33.800Z,15.00
2022-10-23T02:16:14.885Z,15.00
2022-10-23T02:19:14.867Z,15.10
2022-10-23T02:22:10.385Z,15.10
2022-10-23T02:24:45.317Z,15.10
2022-10-23T02:27:15.065Z,15.10
2022-10-23T02:29:51.354Z,15.20
2022-10-23T02:32:21.890Z,15.10
2022-10-23T02:34:48.636Z,15.00
2022-10-23T02:37:15.842Z,15.20
2022-10-23T02:39:42.758Z,15.20
2022-10-23T02:42:25.855Z,15.20
2022-10-23T02:45:19.510Z,15.40
2022-10-23T02:48:04.596Z,15.30
2022-10-23T02:50:37.834Z,15.30
2022-10-23T02:53:16.606Z,15.40
2022-10-23T02:55:46.884Z,15.30
2022-10-23T02:58:31.420Z,15.30
2022-10-23T03:01:08.434Z,14.80
2022-10-23T03:03:46.017Z,15.10
2022-10-23T03:06:13.508Z,15.10
2022-10-23T03:08:52.891Z,15.20
2022-10-23T03:11:19.719Z,15.30
2022-10-23T03:13:46.432Z,15.10
2022-10-23T03:16:13.135Z,15.00
2022-10-23T03:18:39.795Z,15.10
2022-10-23T03:21:06.510Z,15.10
2022-10-23T03:23:33.225Z,15.20
2022-10-23T03:26:16.263Z,15.20
2022-10-23T03:28:43.036Z,15.10
2022-10-23T03:31:09.741Z,15.10
2022-10-23T03:33:36.395Z,15.20
2022-10-23T03:36:03.432Z,15.10
2022-10-23T03:38:30.173Z,14.80
2022-10-23T03:40:56.929Z,14.50
2022-10-23T03:43:23.588Z,14.60
2022-10-23T03:45:51.943Z,14.80
2022-10-23T03:48:18.611Z,14.80
2022-10-23T03:50:45.331Z,15.00
2022-10-23T03:53:11.992Z,15.20
2022-10-23T03:55:38.819Z,15.20
2022-10-23T03:58:05.516Z,15.20
2022-10-23T04:00:32.229Z,15.00
2022-10-23T04:02:58.878Z,15.00
2022-10-23T04:05:25.531Z,15.10
2022-10-23T04:07:52.242Z,15.10
2022-10-23T04:10:19.212Z,15.10
2022-10-23T04:12:46.086Z,15.10
2022-10-23T04:15:12.838Z,15.00
2022-10-23T04:17:39.527Z,15.20
2022-10-23T04:20:06.412Z,15.20
2022-10-23T04:22:33.046Z,15.10
2022-10-23T04:24:59.680Z,15.10
2022-10-23T04:27:26.339Z,15.10
2022-10-23T04:29:55.491Z,15.10
2022-10-23T04:32:24.920Z,15.10
2022-10-23T04:34:51.566Z,15.10
2022-10-23T04:37:18.204Z,15.20
2022-10-23T04:39:44.846Z,15.20
2022-10-23T04:42:11.495Z,15.20
2022-10-23T04:44:38.154Z,15.10
2022-10-23T04:47:04.964Z,15.10
2022-10-23T04:49:31.597Z,15.20
2022-10-23T04:51:58.259Z,15.00
2022-10-23T04:54:24.897Z,14.90
2022-10-23T04:56:51.626Z,15.00
2022-10-23T04:59:18.391Z,15.00
2022-10-23T05:01:45.131Z,14.90
2022-10-23T05:04:11.916Z,14.90
2022-10-23T05:06:38.609Z,14.60
2022-10-23T05:09:05.286Z,14.30
2022-10-23T05:11:31.941Z,14.60
2022-10-23T05:13:58.640Z,14.60
2022-10-23T05:16:52.175Z,14.70
2022-10-23T05:19:24.333Z,14.50
2022-10-23T05:21:55.798Z,14.10
2022-10-23T05:24:26.393Z,14.10
2022-10-23T05:26:54.472Z,13.70
2022-10-23T05:29:21.458Z,13.90
2022-10-23T05:31:54.551Z,13.60
2022-10-23T05:34:23.492Z,13.70
2022-10-23T05:36:50.389Z,13.60
2022-10-23T05:39:17.382Z,13.80
2022-10-23T05:41:44.077Z,13.90
2022-10-23T05:44:10.769Z,13.60
2022-10-23T05:46:42.196Z,13.60
2022-10-23T05:49:09.310Z,13.70
2022-10-23T05:51:37.473Z,13.80
2022-10-23T05:54:04.366Z,14.10
2022-10-23T05:56:31.049Z,13.90
2022-10-23T05:58:57.726Z,13.80
2022-10-23T06:01:24.480Z,14.00
2022-10-23T06:03:51.208Z,14.10
2022-10-23T06:06:17.938Z,13.70
2022-10-23T06:08:44.706Z,13.90
2022-10-23T06:11:14.257Z,13.80
2022-10-23T06:13:45.227Z,13.80
2022-10-23T06:16:17.803Z,13.90
2022-10-23T06:18:46.011Z,13.80
2022-10-23T06:21:13.522Z,13.50
2022-10-23T06:23:41.534Z,13.80
2022-10-23T06:26:10.001Z,14.10
2022-10-23T06:28:36.887Z,14.10
2022-10-23T06:31:08.033Z,14.00
2022-10-23T06:33:36.192Z,13.90
2022-10-23T06:36:05.526Z,13.90
2022-10-23T06:38:37.387Z,13.80
2022-10-23T06:41:04.972Z,13.60
2022-10-23T06:43:31.631Z,13.70
2022-10-23T06:46:02.505Z,13.70
2022-10-23T06:48:29.221Z,13.90
2022-10-23T06:50:55.949Z,13.80
2022-10-23T06:53:25.732Z,13.80
2022-10-23T06:56:03.293Z,13.80
2022-10-23T06:58:30.438Z,13.70
2022-10-23T07:01:01.564Z,13.80
2022-10-23T07:03:28.649Z,13.80
2022-10-23T07:05:55.641Z,13.80
2022-10-23T07:08:22.752Z,13.80
2022-10-23T07:10:49.532Z,13.90
2022-10-23T07:13:16.168Z,13.90
2022-10-23T07:15:42.806Z,14.10
2022-10-23T07:18:14.493Z,13.80
2022-10-23T07:20:42.104Z,13.70
2022-10-23T07:23:11.298Z,13.80
2022-10-23T07:25:38.223Z,13.70
2022-10-23T07:28:05.128Z,13.50
2022-10-23T07:30:31.899Z,13.50
2022-10-23T07:32:58.722Z,13.60
2022-10-23T07:35:25.520Z,13.40
2022-10-23T07:37:52.181Z,13.50
2022-10-23T07:40:19.027Z,13.50
2022-10-23T07:42:45.758Z,13.50
2022-10-23T07:45:12.716Z,13.50
2022-10-23T07:47:39.477Z,13.50
2022-10-23T07:50:06.684Z,13.50
2022-10-23T07:52:36.179Z,13.60
2022-10-23T07:55:06.184Z,13.50
2022-10-23T07:57:32.827Z,13.60
2022-10-23T07:59:59.503Z,13.60
2022-10-23T08:02:26.399Z,13.60
2022-10-23T08:04:53.068Z,13.60
2022-10-23T08:07:19.742Z,13.80
2022-10-23T08:09:46.455Z,13.70
2022-10-23T08:12:13.132Z,13.80
2022-10-23T08:14:40.145Z,13.70
2022-10-23T08:17:09.838Z,14.00
2022-10-23T08:19:37.027Z,13.90
2022-10-23T08:22:03.959Z,13.90
2022-10-23T08:24:30.624Z,13.90
2022-10-23T08:26:58.735Z,13.90
2022-10-23T08:29:25.609Z,14.10
2022-10-23T08:31:55.915Z,14.10
2022-10-23T08:34:23.203Z,14.00
2022-10-23T08:36:49.943Z,14.00
2022-10-23T08:39:16.807Z,13.90
2022-10-23T08:41:49.448Z,13.90
2022-10-23T08:44:32.698Z,14.10
2022-10-23T08:47:02.247Z,13.90
2022-10-23T08:49:44.707Z,14.00
2022-10-23T08:52:50.443Z,14.00
2022-10-23T08:55:34.269Z,14.00
2022-10-23T08:58:06.083Z,14.00
2022-10-23T09:00:33.277Z,14.10
2022-10-23T09:03:02.808Z,14.10
2022-10-23T09:06:00.874Z,14.10
2022-10-23T09:08:38.407Z,14.20
2022-10-23T09:11:16.402Z,14.20
2022-10-23T09:14:28.378Z,14.30
2022-10-23T09:17:16.201Z,14.40
2022-10-23T09:19:45.562Z,14.50
2022-10-23T09:22:13.583Z,14.40
2022-10-23T09:24:43.532Z,14.50
2022-10-23T09:27:16.848Z,14.50
2022-10-23T09:29:55.497Z,14.50
2022-10-23T09:32:43.481Z,14.50
2022-10-23T09:35:22.336Z,14.50
2022-10-23T09:37:53.032Z,14.60
2022-10-23T09:40:43.431Z,14.60
2022-10-23T09:43:16.810Z,14.60
2022-10-23T09:45:43.842Z,14.50
2022-10-23T09:48:18.431Z,14.60
2022-10-23T09:50:54.630Z,14.60
2022-10-23T09:53:38.298Z,14.50
2022-10-23T09:56:14.217Z,14.50
2022-10-23T09:59:01.285Z,14.60
2022-10-23T10:01:47.062Z,14.70
2022-10-23T10:04:14.463Z,14.70
2022-10-23T10:09:16.383Z,14.70
2022-10-23T10:11:54.092Z,14.80
2022-10-23T10:14:42.496Z,14.70
2022-10-23T10:17:27.336Z,14.80
2022-10-23T10:20:27.889Z,14.80
2022-10-23T10:22:58.619Z,14.90
2022-10-23T10:25:52.017Z,14.90
2022-10-23T10:28:53.694Z,14.90
2022-10-23T10:31:53.158Z,14.90
2022-10-23T10:34:35.475Z,14.90
2022-10-23T10:37:50.376Z,14.90
2022-10-23T10:40:46.549Z,15.10
2022-10-23T10:43:34.397Z,15.10
2022-10-23T10:46:11.511Z,15.00
2022-10-23T10:48:44.149Z,15.00
2022-10-23T10:51:21.305Z,15.10
2022-10-23T10:54:30.597Z,15.10
2022-10-23T10:57:00.240Z,15.20
2022-10-23T10:59:34.815Z,15.20
2022-10-23T11:02:20.335Z,15.20
2022-10-23T11:04:57.248Z,15.20
2022-10-23T11:07:32.642Z,15.10
2022-10-23T11:10:03.420Z,15.20
2022-10-23T11:12:30.208Z,15.20
2022-10-23T11:14:58.083Z,15.20
2022-10-23T11:17:40.862Z,15.30
2022-10-23T11:20:41.540Z,15.30
2022-10-23T11:23:31.955Z,15.30
2022-10-23T11:26:07.714Z,15.30
2022-10-23T11:29:04.871Z,15.40
2022-10-23T11:31:51.742Z,15.40
2022-10-23T11:34:36.938Z,15.50
2022-10-23T11:37:06.702Z,15.50
2022-10-23T11:39:35.835Z,15.60
2022-10-23T11:42:05.338Z,15.60
2022-10-23T11:44:34.876Z,15.60
2022-10-23T11:47:26.397Z,15.70
2022-10-23T11:50:14.553Z,15.70
2022-10-23T11:55:59.254Z,16.00
2022-10-23T11:58:32.088Z,16.10
2022-10-23T12:01:19.677Z,16.10
2022-10-23T12:03:56.635Z,16.20
2022-10-23T12:06:30.048Z,16.20
2022-10-23T12:09:02.512Z,16.20
2022-10-23T12:11:42.348Z,16.20
2022-10-23T12:14:30.386Z,16.30
2022-10-23T12:16:57.272Z,16.40
2022-10-23T12:19:27.142Z,16.50
2022-10-23T12:21:59.311Z,16.50
2022-10-23T12:24:34.682Z,16.50
2022-10-23T12:27:20.953Z,16.40
2022-10-23T12:30:15.079Z,16.40
2022-10-23T12:32:54.351Z,16.50
2022-10-23T12:35:28.719Z,16.40
2022-10-23T12:38:13.802Z,16.50
2022-10-23T12:40:44.101Z,16.50
2022-10-23T12:43:36.199Z,16.50
2022-10-23T12:46:30.254Z,16.50
2022-10-23T12:48:58.806Z,16.50
2022-10-23T12:51:35.824Z,16.50
2022-10-23T12:54:03.347Z,16.60
2022-10-23T12:56:38.994Z,16.50
2022-10-23T12:59:20.867Z,16.60
2022-10-23T13:01:51.821Z,16.60
2022-10-23T13:04:35.036Z,16.70
2022-10-23T13:07:03.662Z,16.80
2022-10-23T13:09:38.268Z,16.80
2022-10-23T13:12:06.729Z,16.70
2022-10-23T13:14:42.138Z,16.70
2022-10-23T13:17:12.064Z,16.80
2022-10-23T13:19:39.053Z,16.90
2022-10-23T13:22:19.725Z,16.90
2022-10-23T13:24:46.923Z,16.90
2022-10-23T13:27:33.112Z,16.90
2022-10-23T13:30:01.057Z,17.10
2022-10-23T13:32:30.151Z,17.00
2022-10-23T13:35:20.715Z,17.00
2022-10-23T13:37:48.959Z,17.00
2022-10-23T13:40:27.051Z,17.10
2022-10-23T13:42:55.980Z,17.10
2022-10-23T13:45:25.482Z,17.00
2022-10-23T13:47:52.992Z,17.00
2022-10-23T13:50:20.281Z,17.00
2022-10-23T13:52:47.163Z,17.10
2022-10-23T13:55:25.307Z,17.10
2022-10-23T13:57:52.192Z,17.10
2022-10-23T14:00:19.258Z,17.10
2022-10-23T14:02:46.113Z,17.10
2022-10-23T14:05:12.918Z,17.30
2022-10-23T14:07:39.702Z,17.30
2022-10-23T14:10:07.777Z,17.20
2022-10-23T14:12:44.774Z,17.20
2022-10-23T14:15:12.031Z,17.20
2022-10-23T14:17:38.766Z,17.30
2022-10-23T14:20:06.546Z,17.30
2022-10-23T14:22:33.676Z,17.20
2022-10-23T14:25:00.330Z,17.20
2022-10-23T14:27:27.197Z,17.20
2022-10-23T14:29:53.899Z,17.30
2022-10-23T14:32:20.561Z,17.30
2022-10-23T14:34:52.173Z,17.50
2022-10-23T14:37:20.369Z,17.50
2022-10-23T14:39:50.155Z,17.50
2022-10-23T14:42:17.487Z,17.50
2022-10-23T14:44:44.950Z,17.50
2022-10-23T14:47:11.936Z,17.40
2022-10-23T14:49:40.523Z,17.40
2022-10-23T14:52:08.140Z,17.40
2022-10-23T14:54:36.337Z,17.40
2022-10-23T14:57:03.552Z,17.50
2022-10-23T14:59:30.281Z,17.50
2022-10-23T15:01:56.953Z,17.40
2022-10-23T15:04:23.819Z,17.50
2022-10-23T15:06:50.698Z,17.50
2022-10-23T15:09:19.625Z,17.50
2022-10-23T15:11:46.946Z,17.40
2022-10-23T15:14:14.782Z,17.50
2022-10-23T15:16:42.041Z,17.50
2022-10-23T15:19:13.534Z,17.50
2022-10-23T15:21:44.187Z,17.40
2022-10-23T15:24:10.925Z,17.40
2022-10-23T15:26:38.445Z,17.40
2022-10-23T15:29:05.559Z,17.40
2022-10-23T15:31:37.987Z,17.30
2022-10-23T15:34:05.538Z,17.40
2022-10-23T15:36:32.410Z,17.30
2022-10-23T15:38:59.535Z,17.30
2022-10-23T15:41:31.226Z,17.30
2022-10-23T15:44:02.338Z,17.30
2022-10-23T15:46:29.628Z,17.20
2022-10-23T15:48:56.314Z,17.20
2022-10-23T15:51:23.128Z,17.30
2022-10-23T15:53:49.907Z,17.30
2022-10-23T15:56:16.713Z,17.20
2022-10-23T15:58:43.467Z,17.20
2022-10-23T16:01:10.531Z,17.20
2022-10-23T16:03:38.640Z,17.20
2022-10-23T16:06:07.668Z,17.20
2022-10-23T16:08:34.517Z,17.20
2022-10-23T16:11:01.445Z,17.20
2022-10-23T16:13:28.523Z,17.10
2022-10-23T16:15:55.181Z,17.10
2022-10-23T16:18:23.005Z,17.10
2022-10-23T16:20:55.511Z,17.10
2022-10-23T16:23:22.824Z,17.10
2022-10-23T16:25:51.086Z,17.20
2022-10-23T16:28:17.760Z,17.10
2022-10-23T16:30:44.533Z,17.10
2022-10-23T16:33:11.264Z,17.10
2022-10-23T16:35:38.838Z,17.10
2022-10-23T16:38:05.764Z,17.10
2022-10-23T16:40:32.405Z,17.10
2022-10-23T16:42:59.230Z,17.10
2022-10-23T16:45:25.923Z,17.10
2022-10-23T16:47:52.605Z,17.10
2022-10-23T16:50:19.369Z,17.10
2022-10-23T16:52:46.497Z,17.10
2022-10-23T16:55:14.344Z,17.00
2022-10-23T16:57:43.561Z,17.10
2022-10-23T17:00:10.689Z,17.00
2022-10-23T17:02:38.256Z,17.00
2022-10-23T17:05:05.401Z,17.00
2022-10-23T17:07:32.990Z,17.00
2022-10-23T17:09:59.646Z,17.10
2022-10-23T17:12:26.376Z,17.10
2022-10-23T17:14:53.040Z,17.10
2022-10-23T17:17:19.698Z,17.10
2022-10-23T17:19:46.851Z,17.10
2022-10-23T17:22:14.698Z,17.10
2022-10-23T17:24:44.153Z,17.10
2022-10-23T17:27:13.035Z,17.10
2022-10-23T17:29:39.679Z,17.00
2022-10-23T17:32:06.606Z,17.00
2022-10-23T17:34:33.399Z,17.00
2022-10-23T17:37:00.051Z,17.00
2022-10-23T17:39:28.793Z,17.00
2022-10-23T17:41:56.583Z,17.00
2022-10-23T17:44:23.628Z,17.00
2022-10-23T17:46:53.988Z,16.90
2022-10-23T17:49:20.942Z,17.00
2022-10-23T17:51:54.625Z,16.90
2022-10-23T17:54:21.954Z,16.90
2022-10-23T17:56:48.680Z,16.90
2022-10-23T17:59:18.801Z,16.90
2022-10-23T18:01:48.066Z,16.90
2022-10-23T18:04:17.002Z,16.80
2022-10-23T18:06:47.150Z,16.90
2022-10-23T18:09:14.412Z,16.90
2022-10-23T18:11:45.409Z,16.80
2022-10-23T18:14:15.033Z,16.80
2022-10-23T18:16:41.824Z,16.90
2022-10-23T18:19:08.808Z,16.80
2022-10-23T18:21:36.414Z,16.90
2022-10-23T18:24:03.759Z,16.80
2022-10-23T18:26:34.856Z,16.80
2022-10-23T18:29:04.892Z,16.80
2022-10-23T18:31:31.727Z,16.90
2022-10-23T18:34:01.567Z,16.90
2022-10-23T18:36:33.614Z,16.90
2022-10-23T18:39:00.580Z,17.00
2022-10-23T18:41:31.842Z,16.90
2022-10-23T18:43:58.560Z,16.90
2022-10-23T18:46:25.253Z,17.00
2022-10-23T18:48:51.961Z,17.00
2022-10-23T18:51:28.266Z,16.90
2022-10-23T18:53:55.218Z,17.00
2022-10-23T18:56:24.426Z,17.00
2022-10-23T18:58:59.339Z,16.90
2022-10-23T19:01:27.707Z,16.90
2022-10-23T19:06:23.906Z,16.90
2022-10-23T19:08:51.039Z,16.90
2022-10-23T19:11:20.314Z,16.80
2022-10-23T19:13:47.075Z,16.80
2022-10-23T19:16:17.662Z,16.80
2022-10-23T19:18:49.357Z,16.70
2022-10-23T19:21:20.327Z,16.80
2022-10-23T19:23:47.943Z,16.80
2022-10-23T19:26:15.728Z,16.80
2022-10-23T19:28:49.205Z,16.90
2022-10-23T19:31:16.517Z,16.80
2022-10-23T19:33:43.282Z,16.70
2022-10-23T19:36:14.081Z,16.80
2022-10-23T19:38:42.421Z,16.80
2022-10-23T19:41:12.954Z,16.80
2022-10-23T19:43:39.666Z,16.80
2022-10-23T19:46:12.084Z,16.80
2022-10-23T19:48:44.686Z,16.80
2022-10-23T19:51:14.666Z,16.70
2022-10-23T19:53:42.678Z,16.80
2022-10-23T19:56:12.981Z,16.70
2022-10-23T19:58:40.918Z,16.70
2022-10-23T20:01:17.106Z,16.70
2022-10-23T20:03:48.928Z,16.70
2022-10-23T20:06:24.300Z,16.60
2022-10-23T20:08:51.857Z,16.60
2022-10-23T20:11:30.693Z,16.50
2022-10-23T20:14:00.866Z,16.50
2022-10-23T20:16:34.250Z,16.50
2022-10-23T20:19:12.156Z,16.60
2022-10-23T20:21:43.212Z,16.50
2022-10-23T20:24:11.794Z,16.60
2022-10-23T20:26:47.766Z,16.60
2022-10-23T20:29:17.190Z,16.50
2022-10-23T20:31:47.454Z,16.50
2022-10-23T20:34:14.240Z,16.40
2022-10-23T20:36:46.957Z,16.40
2022-10-23T20:39:17.343Z,16.50
2022-10-23T20:41:45.079Z,16.50
2022-10-23T20:44:14.906Z,16.30
2022-10-23T20:46:45.974Z,16.40
2022-10-23T20:49:14.072Z,16.50
2022-10-23T20:51:42.364Z,16.40
2022-10-23T20:54:09.268Z,16.40
2022-10-23T20:56:38.074Z,16.20
2022-10-23T20:59:07.314Z,16.30
2022-10-23T21:01:35.228Z,16.30
2022-10-23T21:04:03.570Z,16.20
2022-10-23T21:06:45.730Z,16.30
2022-10-23T21:09:20.564Z,16.20
2022-10-23T21:11:47.373Z,16.10
2022-10-23T21:14:14.032Z,16.20
2022-10-23T21:16:44.406Z,16.30
2022-10-23T21:19:15.766Z,16.20
2022-10-23T21:21:43.413Z,16.30
2022-10-23T21:24:14.561Z,16.30
2022-10-23T21:26:42.875Z,16.40
2022-10-23T21:29:20.086Z,16.30
2022-10-23T21:31:59.197Z,16.40
2022-10-23T21:34:26.987Z,16.40
2022-10-23T21:37:11.830Z,16.50
2022-10-23T21:39:39.020Z,16.20
2022-10-23T21:42:05.851Z,16.40
2022-10-23T21:44:32.610Z,16.20
2022-10-23T21:46:59.376Z,16.40
2022-10-23T21:49:26.182Z,16.50
2022-10-23T21:51:54.844Z,16.40
2022-10-23T21:54:22.062Z,16.40
2022-10-23T21:56:51.711Z,16.30
2022-10-23T21:59:21.149Z,16.50
2022-10-23T22:01:48.862Z,16.50
2022-10-23T22:04:17.504Z,16.60
2022-10-23T22:06:45.878Z,16.40
2022-10-23T22:09:15.380Z,16.70
2022-10-23T22:11:42.455Z,16.70
2022-10-23T22:14:09.120Z,16.60
2022-10-23T22:16:35.813Z,16.30
2022-10-23T22:19:02.883Z,16.50
2022-10-23T22:21:30.222Z,16.50
2022-10-23T22:23:59.029Z,16.50
2022-10-23T22:26:28.942Z,16.40
2022-10-23T22:28:58.434Z,16.40
2022-10-23T22:31:28.831Z,16.50
2022-10-23T22:33:56.120Z,16.60
2022-10-23T22:36:23.660Z,16.40
2022-10-23T22:38:50.339Z,16.20
2022-10-23T22:41:17.321Z,16.10
2022-10-23T22:43:44.218Z,16.30
2022-10-23T22:46:13.712Z,15.90
2022-10-23T22:48:42.728Z,16.40
2022-10-23T22:51:12.179Z,16.20
2022-10-23T22:53:39.043Z,16.30
2022-10-23T22:56:08.262Z,16.20
2022-10-23T22:58:35.016Z,16.30
2022-10-23T23:01:12.637Z,16.40
2022-10-23T23:03:39.465Z,16.30
2022-10-23T23:06:07.996Z,16.30
2022-10-23T23:08:36.354Z,16.40
2022-10-23T23:11:04.217Z,16.30
2022-10-23T23:13:31.557Z,16.20
2022-10-23T23:15:58.251Z,16.20
2022-10-23T23:18:25.603Z,16.20
2022-10-23T23:20:52.306Z,16.10
2022-10-23T23:23:19.187Z,16.10
2022-10-23T23:25:49.977Z,16.20
2022-10-23T23:28:19.988Z,16.00
2022-10-23T23:30:47.829Z,16.10
2022-10-23T23:33:16.002Z,16.00
2022-10-23T23:35:44.648Z,16.20
2022-10-23T23:38:12.633Z,16.00
2022-10-23T23:40:39.821Z,16.00
2022-10-23T23:43:06.653Z,16.20
2022-10-23T23:45:33.374Z,16.40
2022-10-23T23:48:00.049Z,16.10
2022-10-23T23:50:27.999Z,16.20
2022-10-23T23:52:54.687Z,16.00
2022-10-23T23:55:21.670Z,16.00
2022-10-23T23:57:48.352Z,15.80
